Airfield :
LOGIN :

Register | Disclaimer

   EN    FR    IT 

 










Legend :    VFR   Marginal VFR   IFR   Intensive IFR   Very Intensive IFR
Visi :
Ceiling :
>= 8 km
>= 3000ft
5 to 8 km
1000 to 3000 ft
1500m to 5 km
500 to 1000 ft
800 to 1500m
200 to 500 ft
< 800m
< 200 ft
Symbols :   Thunderstorms  Fog  Heavy snow  Heavy precipitations  Wind > 20 kt
SIGMETs :     Misc.  Thunderstorms  Icing  Turbulence  Mountain Waves  Volcanic Ashes






- Airport Elevation : 939 ft


LKKB - Kbely Air Base

CURRENT METAR :
  • 020200Z 04004KT 360V070 6000 BKN016 OVC031 00/M02 Q1023

EXPIRED METARs :
  • 020100Z VRB02KT 6000 SCT011 OVC014 M00/M01 Q1023
  • 020000Z VRB02KT 6000 BKN013 OVC046 M00/M02 Q1023

TAF TAF LKKB
Valid from the 02 at 00:00 until the 03 at 00:00 UTC


012300Z 0200/0300 02004KT 5000 BR SCT018
PROB30
TEMPO 0200/0208 3000 BR BKN012
BECMG 0201/0203 06006KT 7000 NSC
BECMG 0210/0212 CAVOK
BECMG 0218/0220 6000 BKN018
TEMPO 0218/0300 2000 SN OVC012
PROB40
TEMPO 0218/0300 1000 SN OVC003



MET'MAP, your aeronautical weather chart ! - Copyright ORBIFLY December 2007 - Disclaimer

ORBIFLY MET'MAP TEAM :

Programming & Development : Alexandra Zaïnal
Original concept : Baudouin d'Aumeries
Technical & hardware support : Manuel Goepfert
Assistance : Marc-Olivier Méhu




SOURCES & CREDITS :

   NOAA